createdAt,value
2022-11-25T00:01:34.373Z,5.05
2022-11-25T00:04:01.642Z,5.00
2022-11-25T00:06:33.809Z,5.18
2022-11-25T00:09:07.911Z,4.40
2022-11-25T00:11:36.598Z,4.53
2022-11-25T00:14:03.626Z,4.53
2022-11-25T00:16:30.462Z,4.57
2022-11-25T00:18:58.233Z,4.15
2022-11-25T00:21:31.430Z,4.53
2022-11-25T00:24:00.404Z,4.80
2022-11-25T00:26:29.122Z,4.30
2022-11-25T00:28:58.590Z,4.70
2022-11-25T00:31:31.122Z,4.88
2022-11-25T00:33:58.570Z,4.32
2022-11-25T00:36:26.658Z,6.35
2022-11-25T00:39:06.661Z,4.45
2022-11-25T00:41:51.820Z,5.88
2022-11-25T00:44:39.620Z,5.72
2022-11-25T00:47:14.386Z,6.35
2022-11-25T00:49:43.701Z,5.43
2022-11-25T00:52:14.131Z,4.65
2022-11-25T00:54:40.886Z,4.20
2022-11-25T00:57:07.746Z,4.55
2022-11-25T00:59:34.440Z,4.78
2022-11-25T01:02:01.448Z,4.38
2022-11-25T01:04:28.217Z,4.32
2022-11-25T01:06:56.919Z,4.93
2022-11-25T01:09:24.253Z,4.00
2022-11-25T01:11:51.757Z,5.13
2022-11-25T01:14:19.578Z,4.22
2022-11-25T01:16:46.560Z,4.22
2022-11-25T01:19:13.489Z,4.63
2022-11-25T01:21:40.827Z,4.72
2022-11-25T01:24:08.153Z,3.55
2022-11-25T01:26:36.308Z,3.95
2022-11-25T01:29:06.172Z,4.28
2022-11-25T01:31:36.020Z,4.40
2022-11-25T01:34:25.661Z,4.93
2022-11-25T01:36:52.350Z,4.82
2022-11-25T01:39:30.141Z,4.30
2022-11-25T01:41:59.317Z,4.65
2022-11-25T01:44:30.836Z,4.13
2022-11-25T01:47:13.125Z,4.75
2022-11-25T01:50:04.137Z,4.10
2022-11-25T01:52:41.726Z,3.38
2022-11-25T01:55:19.519Z,4.47
2022-11-25T01:57:50.740Z,5.20
2022-11-25T02:00:18.373Z,4.43
2022-11-25T02:02:46.805Z,4.20
2022-11-25T02:05:17.972Z,4.28
2022-11-25T02:07:48.472Z,4.90
2022-11-25T02:10:21.418Z,4.95
2022-11-25T02:12:48.753Z,4.40
2022-11-25T02:15:16.394Z,4.57
2022-11-25T02:17:44.337Z,5.68
2022-11-25T02:20:12.610Z,4.88
2022-11-25T02:23:07.785Z,4.93
2022-11-25T02:25:37.090Z,4.75
2022-11-25T02:28:25.191Z,5.65
2022-11-25T02:30:52.099Z,4.57
2022-11-25T02:33:20.523Z,4.97
2022-11-25T02:35:57.340Z,4.40
2022-11-25T02:38:32.825Z,5.00
2022-11-25T02:41:15.097Z,4.07
2022-11-25T02:43:41.993Z,4.20
2022-11-25T02:46:20.382Z,4.88
2022-11-25T02:51:36.925Z,5.70
2022-11-25T02:54:03.967Z,5.00
2022-11-25T02:56:33.784Z,5.50
2022-11-25T02:59:01.395Z,6.15
2022-11-25T03:01:29.889Z,5.90
2022-11-25T03:03:57.040Z,5.60
2022-11-25T03:06:24.372Z,5.35
2022-11-25T03:08:51.199Z,5.60
2022-11-25T03:11:18.003Z,6.15
2022-11-25T03:13:44.927Z,5.90
2022-11-25T03:16:11.849Z,5.93
2022-11-25T03:18:38.782Z,5.35
2022-11-25T03:21:05.789Z,4.93
2022-11-25T03:23:32.565Z,5.72
2022-11-25T03:25:59.305Z,5.03
2022-11-25T03:28:26.107Z,5.32
2022-11-25T03:30:52.856Z,6.20
2022-11-25T03:33:19.711Z,4.80
2022-11-25T03:35:48.392Z,5.13
2022-11-25T03:38:15.218Z,5.10
2022-11-25T03:40:41.975Z,5.55
2022-11-25T03:43:08.713Z,5.82
2022-11-25T03:45:35.413Z,6.30
2022-11-25T03:48:02.147Z,7.07
2022-11-25T03:50:28.914Z,6.53
2022-11-25T03:52:55.588Z,5.93
2022-11-25T03:55:22.324Z,5.63
2022-11-25T03:57:49.168Z,5.40
2022-11-25T04:00:16.034Z,6.03
2022-11-25T04:02:42.860Z,5.03
2022-11-25T04:05:10.107Z,6.03
2022-11-25T04:07:37.009Z,5.70
2022-11-25T04:10:04.165Z,5.47
2022-11-25T04:12:49.017Z,5.95
2022-11-25T04:15:17.302Z,5.53
2022-11-25T04:17:44.256Z,6.07
2022-11-25T04:20:12.413Z,7.47
2022-11-25T04:22:39.097Z,6.43
2022-11-25T04:25:06.387Z,6.45
2022-11-25T04:27:33.162Z,7.28
2022-11-25T04:29:59.907Z,5.65
2022-11-25T04:32:27.471Z,6.43
2022-11-25T04:34:54.368Z,5.30
2022-11-25T04:37:21.652Z,5.93
2022-11-25T04:39:48.616Z,6.00
2022-11-25T04:42:34.433Z,5.20
2022-11-25T04:47:51.863Z,6.18
2022-11-25T04:50:21.422Z,5.75
2022-11-25T04:52:48.169Z,5.60
2022-11-25T04:55:15.129Z,7.20
2022-11-25T04:57:41.902Z,7.47
2022-11-25T05:00:09.973Z,5.97
2022-11-25T05:02:37.020Z,6.18
2022-11-25T05:05:04.233Z,7.15
2022-11-25T05:07:31.005Z,6.45
2022-11-25T05:09:57.856Z,6.47
2022-11-25T05:12:27.533Z,6.60
2022-11-25T05:14:54.301Z,7.80
2022-11-25T05:17:24.133Z,8.60
2022-11-25T05:19:51.936Z,7.57
2022-11-25T05:22:21.233Z,7.70
2022-11-25T05:24:48.355Z,7.53
2022-11-25T05:27:15.936Z,6.53
2022-11-25T05:29:42.893Z,6.20
2022-11-25T05:32:10.126Z,6.45
2022-11-25T05:34:37.261Z,7.40
2022-11-25T05:37:04.880Z,6.50
2022-11-25T05:39:31.876Z,7.45
2022-11-25T05:41:58.798Z,7.65
2022-11-25T05:44:26.121Z,8.27
2022-11-25T05:46:53.239Z,8.15
2022-11-25T05:49:20.940Z,6.78
2022-11-25T05:51:48.374Z,7.70
2022-11-25T05:54:15.153Z,13.60
2022-11-25T05:56:41.990Z,10.00
2022-11-25T05:59:08.782Z,10.38
2022-11-25T06:01:35.506Z,13.60
2022-11-25T06:04:04.051Z,11.32
2022-11-25T06:06:31.157Z,8.32
2022-11-25T06:08:58.019Z,9.20
2022-11-25T06:11:25.634Z,8.20
2022-11-25T06:13:52.551Z,9.52
2022-11-25T06:16:23.074Z,10.73
2022-11-25T06:18:50.109Z,11.13
2022-11-25T06:21:17.309Z,8.82
2022-11-25T06:23:46.196Z,9.07
2022-11-25T06:26:23.006Z,8.20
2022-11-25T06:28:54.043Z,8.50
2022-11-25T06:31:23.957Z,7.55
2022-11-25T06:33:52.099Z,7.13
2022-11-25T06:36:20.781Z,8.13
2022-11-25T06:38:52.933Z,10.00
2022-11-25T06:41:20.674Z,8.07
2022-11-25T06:43:47.397Z,9.55
2022-11-25T06:46:21.300Z,9.68
2022-11-25T06:48:51.119Z,10.95
2022-11-25T06:51:17.873Z,9.93
2022-11-25T06:53:44.899Z,9.77
2022-11-25T06:56:22.917Z,9.48
2022-11-25T06:58:50.421Z,9.15
2022-11-25T07:01:19.005Z,10.25
2022-11-25T07:03:47.183Z,8.35
2022-11-25T07:06:15.683Z,9.00
2022-11-25T07:08:43.058Z,8.77
2022-11-25T07:11:15.097Z,9.05
2022-11-25T07:13:41.887Z,8.13
2022-11-25T07:16:08.838Z,8.27
2022-11-25T07:18:37.343Z,8.38
2022-11-25T07:21:07.144Z,9.18
2022-11-25T07:23:35.241Z,10.07
2022-11-25T07:26:11.057Z,9.85
2022-11-25T07:28:39.354Z,9.43
2022-11-25T07:31:31.328Z,11.63
2022-11-25T07:34:05.539Z,9.82
2022-11-25T07:36:34.088Z,10.02
2022-11-25T07:39:03.948Z,10.57
2022-11-25T07:41:31.295Z,11.48
2022-11-25T07:44:05.384Z,9.70
2022-11-25T07:46:35.822Z,10.18
2022-11-25T07:49:05.605Z,14.20
2022-11-25T07:51:41.300Z,12.45
2022-11-25T07:54:10.836Z,13.23
2022-11-25T07:56:39.784Z,12.25
2022-11-25T07:59:08.426Z,11.50
2022-11-25T08:01:35.511Z,8.85
2022-11-25T08:04:02.528Z,10.93
2022-11-25T08:06:29.926Z,11.30
2022-11-25T08:08:58.200Z,13.63
2022-11-25T08:11:27.584Z,12.50
2022-11-25T08:13:55.641Z,11.63
2022-11-25T08:16:24.843Z,14.32
2022-11-25T08:18:51.703Z,15.13
2022-11-25T08:21:19.336Z,15.15
2022-11-25T08:23:49.693Z,12.80
2022-11-25T08:26:26.230Z,15.40
2022-11-25T08:28:57.714Z,15.75
2022-11-25T08:31:27.360Z,17.52
2022-11-25T08:33:55.353Z,16.67
2022-11-25T08:36:23.673Z,14.98
2022-11-25T08:38:53.870Z,14.43
2022-11-25T08:41:24.387Z,13.45
2022-11-25T08:43:51.409Z,13.73
2022-11-25T08:46:21.664Z,13.93
2022-11-25T08:48:48.590Z,10.70
2022-11-25T08:51:18.561Z,10.65
2022-11-25T08:53:46.429Z,14.48
2022-11-25T08:56:14.803Z,11.35
2022-11-25T08:58:42.789Z,15.80
2022-11-25T09:01:10.750Z,15.85
2022-11-25T09:03:40.812Z,15.80
2022-11-25T09:06:08.944Z,19.70
2022-11-25T09:08:36.507Z,20.13
2022-11-25T09:11:03.723Z,19.33
2022-11-25T09:13:30.687Z,16.60
2022-11-25T09:15:58.268Z,14.77
2022-11-25T09:18:30.199Z,13.90
2022-11-25T09:20:58.631Z,15.55
2022-11-25T09:23:26.336Z,15.45
2022-11-25T09:25:57.670Z,13.43
2022-11-25T09:28:25.943Z,13.45
2022-11-25T09:30:53.090Z,13.85
2022-11-25T09:33:20.404Z,12.57
2022-11-25T09:35:48.583Z,12.20
2022-11-25T09:38:15.291Z,14.80
2022-11-25T09:40:54.058Z,13.35
2022-11-25T09:44:18.992Z,13.93
2022-11-25T09:47:19.441Z,12.98
2022-11-25T09:50:12.408Z,14.57
2022-11-25T09:52:57.071Z,13.15
2022-11-25T09:55:25.937Z,12.70
2022-11-25T09:58:20.079Z,13.57
2022-11-25T10:00:49.174Z,14.60
2022-11-25T10:03:18.725Z,15.10
2022-11-25T10:05:55.113Z,13.85
2022-11-25T10:08:27.184Z,15.15
2022-11-25T10:11:13.822Z,16.38
2022-11-25T10:14:12.513Z,17.35
2022-11-25T10:16:52.240Z,12.20
2022-11-25T10:19:39.849Z,12.75
2022-11-25T10:22:28.169Z,12.93
2022-11-25T10:24:59.193Z,26.70
2022-11-25T10:27:41.595Z,20.53
2022-11-25T10:30:32.019Z,16.77
2022-11-25T10:33:25.248Z,15.60
2022-11-25T10:36:08.998Z,14.57
2022-11-25T10:38:49.958Z,10.87
2022-11-25T10:41:21.194Z,16.23
2022-11-25T10:43:48.384Z,14.67
2022-11-25T10:46:15.183Z,13.70
2022-11-25T10:48:54.510Z,10.33
2022-11-25T10:51:42.064Z,11.40
2022-11-25T10:54:09.452Z,11.43
2022-11-25T10:56:51.961Z,11.03
2022-11-25T10:59:29.670Z,14.60
2022-11-25T11:02:17.454Z,16.60
2022-11-25T11:05:01.806Z,14.63
2022-11-25T11:07:34.324Z,13.70
2022-11-25T11:10:21.846Z,12.50
2022-11-25T11:12:54.913Z,11.93
2022-11-25T11:15:33.301Z,9.60
2022-11-25T11:18:22.131Z,10.63
2022-11-25T11:20:52.111Z,10.47
2022-11-25T11:23:19.446Z,9.70
2022-11-25T11:25:57.747Z,9.33
2022-11-25T11:28:36.852Z,8.73
2022-11-25T11:31:25.120Z,9.70
2022-11-25T11:34:14.935Z,9.53
2022-11-25T11:37:03.151Z,8.87
2022-11-25T11:39:38.685Z,7.30
2022-11-25T11:42:23.759Z,9.00
2022-11-25T11:45:02.740Z,8.37
2022-11-25T11:48:06.443Z,8.03
2022-11-25T11:50:41.099Z,8.83
2022-11-25T11:53:30.883Z,9.90
2022-11-25T11:59:32.362Z,10.67
2022-11-25T12:02:20.984Z,9.13
2022-11-25T12:05:10.890Z,10.83
2022-11-25T12:08:03.236Z,14.00
2022-11-25T12:10:39.007Z,11.40
2022-11-25T12:13:15.045Z,11.40
2022-11-25T12:16:04.593Z,10.07
2022-11-25T12:18:46.348Z,10.80
2022-11-25T12:21:38.682Z,9.47
2022-11-25T12:24:32.739Z,8.90
2022-11-25T12:27:12.049Z,9.90
2022-11-25T12:29:41.828Z,11.50
2022-11-25T12:32:36.482Z,10.80
2022-11-25T12:35:11.968Z,10.63
2022-11-25T12:37:52.699Z,10.70
2022-11-25T12:40:45.577Z,10.83
2022-11-25T12:43:21.377Z,10.60
2022-11-25T12:45:58.966Z,11.33
2022-11-25T12:48:25.868Z,15.20
2022-11-25T12:51:16.602Z,13.20
2022-11-25T12:53:58.501Z,13.70
2022-11-25T12:56:43.927Z,12.50
2022-11-25T12:59:35.905Z,12.63
2022-11-25T13:02:31.340Z,10.50
2022-11-25T13:05:39.616Z,10.30
2022-11-25T13:08:11.133Z,4.20
2022-11-25T13:10:52.424Z,4.00
2022-11-25T13:14:11.884Z,3.17
2022-11-25T13:16:39.833Z,2.83
2022-11-25T13:19:12.291Z,3.97
2022-11-25T13:21:59.185Z,3.13
2022-11-25T13:24:48.989Z,2.67
2022-11-25T13:27:31.077Z,3.13
2022-11-25T13:29:59.188Z,2.30
2022-11-25T13:32:37.819Z,2.60
2022-11-25T13:35:24.531Z,2.50
2022-11-25T13:37:51.981Z,2.37
2022-11-25T13:40:40.914Z,2.67
2022-11-25T13:43:21.499Z,2.73
2022-11-25T13:45:48.384Z,2.53
2022-11-25T13:48:30.466Z,2.50
2022-11-25T13:51:20.767Z,2.90
2022-11-25T13:54:04.782Z,2.13
2022-11-25T13:56:36.722Z,2.67
2022-11-25T13:59:13.908Z,3.80
2022-11-25T14:01:52.734Z,7.00
2022-11-25T14:04:35.996Z,4.30
2022-11-25T14:07:20.083Z,4.40
2022-11-25T14:10:02.682Z,6.23
2022-11-25T14:13:02.826Z,6.00
2022-11-25T14:15:44.434Z,6.73
2022-11-25T14:18:16.969Z,5.37
2022-11-25T14:20:54.721Z,4.17
2022-11-25T14:23:42.861Z,3.90
2022-11-25T14:26:34.097Z,3.93
2022-11-25T14:29:06.354Z,3.60
2022-11-25T14:31:39.765Z,3.30
2022-11-25T14:34:36.738Z,2.73
2022-11-25T14:37:46.789Z,3.97
2022-11-25T14:40:19.346Z,6.37
2022-11-25T14:42:51.746Z,4.00
2022-11-25T14:45:39.015Z,6.30
2022-11-25T14:48:21.894Z,6.10
2022-11-25T14:51:04.230Z,5.00
2022-11-25T14:53:31.265Z,2.27
2022-11-25T14:56:00.742Z,2.80
2022-11-25T14:58:27.777Z,2.20
2022-11-25T15:01:16.605Z,2.00
2022-11-25T15:03:46.000Z,3.00
2022-11-25T15:06:13.882Z,3.80
2022-11-25T15:08:42.835Z,2.70
2022-11-25T15:11:22.599Z,2.20
2022-11-25T15:14:03.333Z,2.50
2022-11-25T15:16:36.944Z,1.70
2022-11-25T15:19:06.175Z,3.20
2022-11-25T15:22:00.007Z,3.93
2022-11-25T15:24:29.319Z,2.60
2022-11-25T15:26:59.855Z,3.43
2022-11-25T15:29:29.105Z,3.70
2022-11-25T15:31:59.879Z,4.40
2022-11-25T15:34:29.513Z,3.60
2022-11-25T15:36:56.292Z,4.20
2022-11-25T15:39:25.567Z,3.20
2022-11-25T15:41:55.280Z,3.20
2022-11-25T15:44:26.410Z,3.70
2022-11-25T15:47:05.881Z,4.47
2022-11-25T15:49:35.872Z,2.67
2022-11-25T15:52:17.263Z,3.13
2022-11-25T15:54:52.430Z,2.50
2022-11-25T15:57:28.299Z,3.60
2022-11-25T15:59:55.081Z,3.40
2022-11-25T16:02:40.082Z,3.70
2022-11-25T16:05:12.809Z,2.93
2022-11-25T16:07:50.113Z,3.30
2022-11-25T16:10:17.326Z,4.40
2022-11-25T16:12:44.049Z,4.60
2022-11-25T16:15:17.993Z,5.13
2022-11-25T16:17:44.939Z,5.20
2022-11-25T16:20:19.425Z,5.50
2022-11-25T16:22:47.101Z,5.43
2022-11-25T16:25:17.119Z,5.30
2022-11-25T16:27:45.047Z,5.57
2022-11-25T16:30:19.409Z,5.90
2022-11-25T16:32:46.236Z,6.43
2022-11-25T16:35:20.622Z,5.53
2022-11-25T16:37:49.377Z,5.37
2022-11-25T16:40:17.918Z,4.03
2022-11-25T16:42:48.756Z,4.30
2022-11-25T16:45:21.688Z,5.07
2022-11-25T16:47:48.425Z,5.77
2022-11-25T16:50:17.264Z,5.53
2022-11-25T16:52:44.061Z,8.53
2022-11-25T16:55:11.255Z,9.00
2022-11-25T16:57:40.220Z,30.10
2022-11-25T17:00:12.627Z,35.07
2022-11-25T17:02:39.393Z,23.60
2022-11-25T17:05:21.184Z,16.53
2022-11-25T17:07:50.337Z,14.47
2022-11-25T17:10:18.083Z,10.90
2022-11-25T17:12:47.043Z,9.50
2022-11-25T17:15:17.726Z,8.87
2022-11-25T17:17:49.175Z,7.27
2022-11-25T17:20:18.321Z,11.27
2022-11-25T17:22:45.089Z,6.03
2022-11-25T17:25:13.230Z,5.17
2022-11-25T17:27:41.278Z,4.00
2022-11-25T17:30:17.474Z,4.10
2022-11-25T17:32:44.542Z,4.57
2022-11-25T17:35:19.440Z,4.73
2022-11-25T17:37:46.663Z,3.97
2022-11-25T17:40:14.245Z,5.07
2022-11-25T17:42:41.858Z,4.43
2022-11-25T17:45:17.346Z,5.37
2022-11-25T17:47:44.677Z,4.93
2022-11-25T17:50:25.682Z,4.63
2022-11-25T17:52:52.859Z,4.73
2022-11-25T17:55:21.613Z,4.20
2022-11-25T17:57:51.492Z,5.00
2022-11-25T18:00:21.345Z,4.97
2022-11-25T18:02:48.442Z,5.13
2022-11-25T18:05:23.694Z,5.30
2022-11-25T18:07:50.984Z,6.43
2022-11-25T18:10:21.157Z,7.27
2022-11-25T18:12:51.988Z,9.00
2022-11-25T18:15:22.571Z,12.00
2022-11-25T18:17:50.556Z,10.73
2022-11-25T18:20:25.605Z,10.53
2022-11-25T18:22:53.550Z,10.07
2022-11-25T18:25:23.448Z,8.93
2022-11-25T18:27:56.134Z,6.90
2022-11-25T18:30:30.696Z,8.13
2022-11-25T18:32:58.257Z,10.83
2022-11-25T18:35:35.729Z,13.90
2022-11-25T18:38:03.893Z,13.60
2022-11-25T18:40:30.877Z,13.60
2022-11-25T18:43:00.771Z,11.90
2022-11-25T18:45:30.893Z,12.83
2022-11-25T18:47:57.730Z,12.43
2022-11-25T18:50:27.005Z,12.60
2022-11-25T18:52:54.020Z,14.83
2022-11-25T18:55:23.064Z,14.53
2022-11-25T18:57:51.702Z,14.43
2022-11-25T19:00:32.273Z,12.07
2022-11-25T19:03:00.484Z,10.70
2022-11-25T19:05:32.781Z,9.90
2022-11-25T19:07:59.685Z,9.33
2022-11-25T19:10:30.916Z,9.87
2022-11-25T19:13:01.630Z,9.43
2022-11-25T19:15:28.615Z,8.50
2022-11-25T19:18:01.278Z,9.33
2022-11-25T19:20:31.565Z,9.53
2022-11-25T19:23:01.066Z,10.60
2022-11-25T19:25:28.717Z,25.93
2022-11-25T19:27:59.284Z,29.50
2022-11-25T19:30:31.059Z,28.50
2022-11-25T19:33:00.320Z,26.07
2022-11-25T19:35:33.196Z,25.90
2022-11-25T19:37:59.935Z,24.87
2022-11-25T19:40:26.940Z,25.80
2022-11-25T19:42:53.629Z,26.97
2022-11-25T19:45:20.955Z,18.77
2022-11-25T19:47:50.515Z,15.07
2022-11-25T19:50:22.042Z,14.17
2022-11-25T19:52:49.969Z,12.80
2022-11-25T19:55:20.244Z,9.40
2022-11-25T19:57:48.371Z,8.60
2022-11-25T20:00:16.874Z,9.57
2022-11-25T20:02:45.223Z,9.80
2022-11-25T20:05:20.240Z,12.00
2022-11-25T20:07:47.434Z,13.17
2022-11-25T20:10:16.281Z,15.33
2022-11-25T20:12:43.135Z,11.90
2022-11-25T20:15:10.471Z,10.27
2022-11-25T20:17:39.767Z,11.23
2022-11-25T20:20:27.432Z,10.77
2022-11-25T20:22:58.505Z,9.13
2022-11-25T20:25:26.096Z,10.27
2022-11-25T20:27:52.958Z,8.50
2022-11-25T20:30:27.852Z,8.50
2022-11-25T20:32:55.298Z,10.93
2022-11-25T20:35:23.680Z,10.67
2022-11-25T20:38:00.702Z,8.70
2022-11-25T20:40:40.219Z,10.30
2022-11-25T20:43:31.909Z,8.80
2022-11-25T20:46:00.547Z,8.77
2022-11-25T20:48:28.775Z,7.30
2022-11-25T20:50:58.788Z,5.50
2022-11-25T20:53:27.952Z,6.17
2022-11-25T20:55:54.748Z,5.20
2022-11-25T20:58:22.724Z,6.00
2022-11-25T21:00:55.679Z,5.00
2022-11-25T21:03:24.609Z,4.90
2022-11-25T21:05:52.653Z,5.07
2022-11-25T21:08:29.364Z,4.40
2022-11-25T21:10:58.251Z,6.27
2022-11-25T21:13:29.866Z,4.77
2022-11-25T21:15:57.638Z,5.20
2022-11-25T21:18:25.346Z,4.80
2022-11-25T21:20:55.664Z,5.53
2022-11-25T21:23:29.391Z,4.90
2022-11-25T21:26:13.619Z,4.27
2022-11-25T21:28:44.057Z,6.60
2022-11-25T21:31:17.948Z,5.53
2022-11-25T21:33:46.286Z,5.00
2022-11-25T21:36:31.708Z,4.50
2022-11-25T21:39:14.270Z,5.77
2022-11-25T21:41:41.344Z,5.03
2022-11-25T21:44:08.215Z,5.20
2022-11-25T21:46:35.077Z,4.77
2022-11-25T21:49:01.925Z,5.03
2022-11-25T21:51:28.689Z,4.83
2022-11-25T21:53:55.512Z,4.73
2022-11-25T21:56:31.458Z,4.70
2022-11-25T21:58:59.782Z,4.80
2022-11-25T22:01:26.717Z,5.13
2022-11-25T22:03:53.757Z,3.80
2022-11-25T22:06:27.307Z,5.40
2022-11-25T22:08:57.971Z,5.00
2022-11-25T22:11:33.446Z,5.60
2022-11-25T22:14:04.677Z,5.80
2022-11-25T22:16:34.481Z,5.10
2022-11-25T22:19:01.268Z,4.77
2022-11-25T22:21:27.986Z,4.60
2022-11-25T22:23:54.882Z,4.60
2022-11-25T22:26:26.118Z,4.07
2022-11-25T22:28:53.845Z,3.57
2022-11-25T22:31:21.094Z,7.27
2022-11-25T22:33:49.010Z,4.77
2022-11-25T22:36:35.250Z,5.00
2022-11-25T22:39:15.934Z,5.40
2022-11-25T22:41:55.498Z,6.17
2022-11-25T22:44:35.624Z,5.00
2022-11-25T22:47:03.266Z,5.33
2022-11-25T22:49:42.220Z,5.43
2022-11-25T22:52:20.328Z,5.47
2022-11-25T22:54:47.370Z,6.10
2022-11-25T22:57:14.041Z,6.07
2022-11-25T22:59:40.776Z,7.30
2022-11-25T23:02:09.670Z,7.20
2022-11-25T23:04:36.907Z,5.97
2022-11-25T23:07:08.389Z,6.33
2022-11-25T23:09:35.153Z,5.87
2022-11-25T23:12:01.939Z,5.67
2022-11-25T23:14:28.710Z,5.90
2022-11-25T23:16:55.735Z,5.17
2022-11-25T23:19:22.563Z,6.50
2022-11-25T23:21:49.306Z,6.83
2022-11-25T23:24:17.325Z,6.30
2022-11-25T23:26:44.647Z,5.87
2022-11-25T23:29:11.493Z,6.30
2022-11-25T23:31:40.036Z,6.43
2022-11-25T23:34:08.189Z,5.80
2022-11-25T23:36:48.588Z,7.63
2022-11-25T23:39:21.899Z,5.60
2022-11-25T23:41:49.137Z,5.75
2022-11-25T23:44:26.133Z,5.57
2022-11-25T23:47:00.080Z,5.07
2022-11-25T23:49:26.877Z,5.40
2022-11-25T23:51:57.165Z,5.80
2022-11-25T23:54:31.070Z,5.07
2022-11-25T23:56:57.982Z,4.97
2022-11-25T23:59:29.682Z,4.20
